Bottineau, ND (58318)

4:10 AM CST on February 14, 2016 (GMT -0600)
Bottineau weather station | | Change Station
CLOSE
Current Station
Personal Weather Station
Location: Bottineau, ND
Elevation: 1644 ft
Nearby Weather Stations
Active Advisory: Winter Weather Advisory Active Notice: Record Report

Elev 1644 ft 48.83 °N, 100.45 °W | Updated 2 seconds ago

Overcast
Overcast
13.1 °F
Feels Like 13 °F
N
2.0
Wind Variable Wind from East
Gusts 2.7 mph

Today
High -- | Low -- °F
--% Chance of Precip.
Yesterday
High -- | Low -- °F
Precip. -- in
Pressure 29.74 in
Visibility 2.5 miles
Clouds Overcast 400 ft
Windchill 13 °F
Dew Point -18 °F
Humidity 23%
Rainfall 0.00 in
Snow Depth Not available.
7:52 AM 6:00 PM
Waxing Crescent, 40% visible
METAR K06D 140955Z AUTO 18010KT 2 1/2SM -SN OVC004 M12/M13 A2974 RMK AO2 P0002
Pressure 29.74 in
Visibility 2.5 miles
Clouds Overcast 400 ft
Windchill 13 °F
Dew Point -18 °F
Humidity 23%
Rainfall 0.00 in
Snow Depth Not available.
7:52 AM 6:00 PM
Waxing Crescent, 40% visible
METAR K06D 140955Z AUTO 18010KT 2 1/2SM -SN OVC004 M12/M13 A2974 RMK AO2 P0002

10-Day Weather Forecast

Almanac

Astronomy

Feb. 14, 2016 Rise Set
Actual Time
Civil Twilight
Nautical Twilight
Astronomical Twilight
Moon
Length of Visible Light
Length of Day
Tomorrow will be .
, % of the Moon is Illuminated

Today's Extremes

State Highs State Lows

Community

WunderPhotos

Upload Photos

1,892,761 photos uploaded!

WunderBlog® & News

Nearby

Air Quality

  Air Quality AQ Index Pollutant
Not available.

Snow Depth

Station Depth Elevation

Earthquake Activity

City Distance Mag. Time & Date
Minimum magnitude displayed is 2.5.

Coastal Water Temperatures

Place Temperature

Stations

Nearby Weather Stations

Station Location Temp. Windchill Dew Point Humidity Wind Precip. Elev Updated Type
                   

Watches & Warnings

Winter Weather Advisory
Issued: 2:58 AM CST Feb. 14, 2016 – National Weather Service

... Winter Weather Advisory now in effect until noon CST today...

The Winter Weather Advisory is now in effect until noon CST
today.

* Expect snow to end during the morning... with areas of freezing
drizzle to develop... diminishing around noon.

* Additional snow accumulations of up to 2 inches and ice
accumulations of a glaze are expected.

* Look for reduced visibilities at times.

* Plan on slippery Road conditions.

Precautionary/preparedness actions...

A Winter Weather Advisory means that periods of snow... sleet or
freezing rain will cause travel difficulties. Be prepared for
slippery roads and limited visibilities... and use caution while
driving. The latest Road conditions for the state you are calling
from can be obtained by calling 5 1 1.


Jv/ayd